Primorsko-Ahtarsk, Russia
Current Conditions -  °F | °C
As of 9:00 PM on Sunday 23 Nov 2014 (Local Time) from URKA Reporting Station
Clear Clear  
Wind Chill: 18°   Ceiling: Unl
Heat Index: 28°   Visibility: 6mi
Dew Point: 19°   Wind: 13mph
Humidity: 69%   Direction: 50°NE
Pressure: 30.3"   Gusts: NA
Location:  46.04°N, 38.18°E
Report Text: URKA 231800Z 05006MPS CAVOK M02/M07 Q1026 RMK QFE765/1020
Loading
Personal Weather Stations






























Interactive Weather Map New forecast layout! Learn more

10-Day Weather Forecast

Advertisements
Track Severe Weather on mobile